createdAt,value
2016-03-23T00:00:39.360Z,0
2016-03-23T00:01:39.393Z,0
2016-03-23T00:02:39.381Z,0
2016-03-23T00:03:39.414Z,0
2016-03-23T00:04:39.417Z,0
2016-03-23T00:05:39.434Z,0
2016-03-23T00:06:39.438Z,0
2016-03-23T00:07:39.472Z,0
2016-03-23T00:08:39.505Z,0
2016-03-23T00:09:39.524Z,0
2016-03-23T00:10:39.527Z,0
2016-03-23T00:11:39.561Z,0
2016-03-23T00:12:39.563Z,0
2016-03-23T00:13:39.910Z,0
2016-03-23T00:14:39.584Z,0
2016-03-23T00:15:39.618Z,0
2016-03-23T00:16:39.653Z,0
2016-03-23T00:17:39.639Z,0
2016-03-23T00:18:39.674Z,0
2016-03-23T00:19:39.691Z,0
2016-03-23T00:20:39.725Z,0
2016-03-23T00:21:39.713Z,0
2016-03-23T00:22:39.746Z,0
2016-03-23T00:23:39.750Z,0
2016-03-23T00:24:39.783Z,0
2016-03-23T00:25:39.786Z,0
2016-03-23T00:26:39.820Z,0
2016-03-23T00:27:39.823Z,0
2016-03-23T00:28:39.747Z,0
2016-03-23T00:29:39.859Z,0
2016-03-23T00:30:39.881Z,0
2016-03-23T00:31:39.915Z,0
2016-03-23T00:32:39.949Z,0
2016-03-23T00:33:39.951Z,0
2016-03-23T00:34:39.954Z,0
2016-03-23T00:35:39.956Z,0
2016-03-23T00:36:39.803Z,0
2016-03-23T00:37:40.009Z,0
2016-03-23T00:38:40.012Z,0
2016-03-23T00:39:40.045Z,0
2016-03-23T00:40:40.064Z,0
2016-03-23T00:41:40.082Z,0
2016-03-23T00:42:40.100Z,0
2016-03-23T00:43:40.165Z,0
2016-03-23T00:44:40.136Z,0
2016-03-23T00:45:40.139Z,0
2016-03-23T00:46:40.173Z,0
2016-03-23T00:47:40.175Z,0
2016-03-23T00:48:40.211Z,0
2016-03-23T00:49:40.213Z,0
2016-03-23T00:50:40.231Z,0
2016-03-23T00:51:40.234Z,0
2016-03-23T00:52:40.267Z,0
2016-03-23T00:53:40.286Z,0
2016-03-23T00:54:40.288Z,0
2016-03-23T00:55:40.308Z,0
2016-03-23T00:56:40.341Z,0
2016-03-23T00:57:40.343Z,0
2016-03-23T00:58:40.580Z,0
2016-03-23T00:59:40.411Z,0
2016-03-23T01:00:40.399Z,0
2016-03-23T01:01:40.433Z,0
2016-03-23T01:02:40.452Z,0
2016-03-23T01:03:40.469Z,0
2016-03-23T01:04:40.471Z,0
2016-03-23T01:05:40.506Z,0
2016-03-23T01:06:40.368Z,0
2016-03-23T01:07:40.573Z,0
2016-03-23T01:08:40.545Z,0
2016-03-23T01:09:40.594Z,0
2016-03-23T01:10:40.566Z,0
2016-03-23T01:11:40.615Z,0
2016-03-23T01:12:40.618Z,0
2016-03-23T01:13:40.637Z,0
2016-03-23T01:14:40.655Z,0
2016-03-23T01:15:40.658Z,0
2016-03-23T01:16:40.692Z,0
2016-03-23T01:20:01.527Z,0
2016-03-23T01:20:58.515Z,0
2016-03-23T01:21:58.533Z,0
2016-03-23T01:22:58.552Z,0
2016-03-23T01:23:58.570Z,0
2016-03-23T01:24:58.603Z,0
2016-03-23T01:25:58.653Z,0
2016-03-23T01:26:58.625Z,0
2016-03-23T01:27:58.691Z,0
2016-03-23T01:28:58.661Z,0
2016-03-23T01:29:58.679Z,0
2016-03-23T01:30:58.699Z,0
2016-03-23T01:31:58.732Z,0
2016-03-23T01:32:58.750Z,0
2016-03-23T01:33:58.753Z,0
2016-03-23T01:34:58.788Z,0
2016-03-23T01:35:58.790Z,0
2016-03-23T01:36:58.807Z,0
2016-03-23T01:37:58.810Z,0
2016-03-23T01:38:58.829Z,0
2016-03-23T01:39:58.848Z,0
2016-03-23T01:40:58.865Z,0
2016-03-23T01:41:58.884Z,0
2016-03-23T01:42:58.902Z,0
2016-03-23T01:43:58.748Z,0
2016-03-23T01:44:58.939Z,0
2016-03-23T01:45:58.973Z,0
2016-03-23T01:46:58.975Z,0
2016-03-23T01:47:59.072Z,0
2016-03-23T01:48:59.012Z,0
2016-03-23T01:49:59.045Z,0
2016-03-23T01:50:59.048Z,0
2016-03-23T01:51:59.051Z,0
2016-03-23T01:52:59.070Z,0
2016-03-23T01:53:59.088Z,0
2016-03-23T01:54:59.106Z,0
2016-03-23T01:55:59.125Z,0
2016-03-23T01:56:59.143Z,0
2016-03-23T01:57:59.161Z,0
2016-03-23T01:58:59.335Z,0
2016-03-23T01:59:59.198Z,0
2016-03-23T02:00:59.216Z,0
2016-03-23T02:01:59.249Z,0
2016-03-23T02:02:59.238Z,0
2016-03-23T02:03:59.271Z,0
2016-03-23T02:04:59.290Z,0
2016-03-23T02:05:59.308Z,0
2016-03-23T02:06:59.311Z,0
2016-03-23T02:07:59.329Z,0
2016-03-23T02:08:59.417Z,0
2016-03-23T02:09:59.386Z,0
2016-03-23T02:10:59.475Z,0
2016-03-23T02:11:59.406Z,0
2016-03-23T02:12:59.410Z,0
2016-03-23T02:13:59.850Z,0
2016-03-23T02:14:59.446Z,0
2016-03-23T02:15:59.464Z,0
2016-03-23T02:16:59.483Z,0
2016-03-23T02:17:59.501Z,0
2016-03-23T02:18:59.519Z,0
2016-03-23T02:19:59.538Z,0
2016-03-23T02:20:59.562Z,0
2016-03-23T02:21:59.596Z,0
2016-03-23T02:22:59.583Z,0
2016-03-23T02:23:59.601Z,0
2016-03-23T02:24:59.619Z,0
2016-03-23T02:25:59.623Z,0
2016-03-23T02:26:59.656Z,0
2016-03-23T02:27:59.674Z,0
2016-03-23T02:28:59.802Z,0
2016-03-23T02:29:59.695Z,0
2016-03-23T02:30:59.713Z,0
2016-03-23T02:31:59.733Z,0
2016-03-23T02:32:59.766Z,0
2016-03-23T02:33:59.769Z,0
2016-03-23T02:34:59.802Z,0
2016-03-23T02:35:59.790Z,0
2016-03-23T02:36:59.808Z,0
2016-03-23T02:37:59.826Z,0
2016-03-23T02:38:59.844Z,0
2016-03-23T02:39:59.862Z,0
2016-03-23T02:40:59.882Z,0
2016-03-23T02:41:59.899Z,0
2016-03-23T02:42:59.918Z,0
2016-03-23T02:44:00.062Z,0
2016-03-23T02:44:59.954Z,0
2016-03-23T02:45:59.973Z,0
2016-03-23T02:46:59.990Z,0
2016-03-23T02:48:00.010Z,0
2016-03-23T02:49:00.028Z,0
2016-03-23T02:50:00.062Z,0
2016-03-23T02:51:00.080Z,0
2016-03-23T02:52:00.083Z,0
2016-03-23T02:53:00.086Z,0
2016-03-23T02:54:00.103Z,0
2016-03-23T02:55:00.123Z,0
2016-03-23T02:56:00.125Z,0
2016-03-23T02:57:00.159Z,0
2016-03-23T02:58:00.162Z,0
2016-03-23T02:59:00.227Z,0
2016-03-23T03:00:00.198Z,0
2016-03-23T03:01:00.216Z,0
2016-03-23T03:02:00.235Z,0
2016-03-23T03:03:00.253Z,0
2016-03-23T03:04:00.286Z,0
2016-03-23T03:05:00.305Z,0
2016-03-23T03:06:00.324Z,0
2016-03-23T03:07:00.155Z,0
2016-03-23T03:08:00.344Z,0
2016-03-23T03:09:00.363Z,0
2016-03-23T03:10:00.366Z,0
2016-03-23T03:11:00.385Z,0
2016-03-23T03:12:00.402Z,0
2016-03-23T03:13:00.420Z,0
2016-03-23T03:14:00.470Z,0
2016-03-23T03:15:00.457Z,0
2016-03-23T03:16:00.475Z,0
2016-03-23T03:17:00.494Z,0
2016-03-23T03:18:00.528Z,0
2016-03-23T03:19:00.530Z,0
2016-03-23T03:20:00.548Z,0
2016-03-23T03:21:00.567Z,0
2016-03-23T03:22:00.585Z,0
2016-03-23T03:23:00.587Z,0
2016-03-23T03:24:00.606Z,0
2016-03-23T03:25:00.625Z,0
2016-03-23T03:26:00.627Z,0
2016-03-23T03:27:00.661Z,0
2016-03-23T03:28:00.664Z,0
2016-03-23T03:29:00.714Z,0
2016-03-23T03:30:00.716Z,0
2016-03-23T03:31:00.829Z,0
2016-03-23T03:32:00.737Z,0
2016-03-23T03:33:00.773Z,0
2016-03-23T03:34:00.790Z,0
2016-03-23T03:35:00.808Z,0
2016-03-23T03:36:00.795Z,0
2016-03-23T03:37:00.814Z,0
2016-03-23T03:38:00.833Z,0
2016-03-23T03:39:00.850Z,0
2016-03-23T03:40:00.869Z,0
2016-03-23T03:41:00.887Z,0
2016-03-23T03:42:00.921Z,0
2016-03-23T03:43:00.925Z,0
2016-03-23T03:44:01.145Z,0
2016-03-23T03:45:00.961Z,0
2016-03-23T03:46:00.963Z,0
2016-03-23T03:47:01.044Z,0
2016-03-23T03:48:01.000Z,0
2016-03-23T03:49:01.018Z,0
2016-03-23T03:50:01.021Z,0
2016-03-23T03:51:01.055Z,0
2016-03-23T03:52:01.073Z,0
2016-03-23T03:53:01.076Z,0
2016-03-23T03:54:01.110Z,0
2016-03-23T03:55:01.129Z,0
2016-03-23T03:56:01.146Z,0
2016-03-23T03:57:01.165Z,0
2016-03-23T03:58:01.183Z,0
2016-03-23T03:59:01.201Z,0
2016-03-23T04:00:01.204Z,0
2016-03-23T04:01:01.223Z,0
2016-03-23T04:02:01.240Z,0
2016-03-23T04:03:01.259Z,0
2016-03-23T04:04:01.278Z,0
2016-03-23T04:05:01.281Z,0
2016-03-23T04:06:01.298Z,0
2016-03-23T04:07:01.317Z,0
2016-03-23T04:08:01.319Z,0
2016-03-23T04:09:01.337Z,0
2016-03-23T04:10:01.387Z,0
2016-03-23T04:11:01.405Z,0
2016-03-23T04:12:01.409Z,0
2016-03-23T04:13:01.427Z,0
2016-03-23T04:14:01.445Z,0
2016-03-23T04:15:01.447Z,0
2016-03-23T04:16:01.481Z,0
2016-03-23T04:17:01.484Z,0
2016-03-23T04:18:01.502Z,0
2016-03-23T04:19:01.521Z,0
2016-03-23T04:20:01.538Z,0
2016-03-23T04:21:01.557Z,0
2016-03-23T04:22:01.576Z,0
2016-03-23T04:23:01.609Z,0
2016-03-23T04:24:01.612Z,0
2016-03-23T04:25:01.615Z,0
2016-03-23T04:26:01.632Z,0
2016-03-23T04:27:01.667Z,0
2016-03-23T04:28:01.670Z,0
2016-03-23T04:29:01.734Z,0
2016-03-23T04:30:01.706Z,0
2016-03-23T04:31:01.725Z,0
2016-03-23T04:32:01.728Z,0
2016-03-23T04:33:01.745Z,0
2016-03-23T04:34:01.779Z,0
2016-03-23T04:35:01.782Z,0
2016-03-23T04:36:01.800Z,0
2016-03-23T04:37:01.850Z,0
2016-03-23T04:38:02.431Z,0
2016-03-23T04:39:01.793Z,0
2016-03-23T04:40:01.874Z,0
2016-03-23T04:41:01.908Z,0
2016-03-23T04:42:01.895Z,0
2016-03-23T04:43:01.945Z,0
2016-03-23T04:44:01.947Z,0
2016-03-23T04:45:01.950Z,0
2016-03-23T04:46:02.000Z,0
2016-03-23T04:47:01.971Z,0
2016-03-23T04:48:02.021Z,4
2016-03-23T04:49:02.039Z,4
2016-03-23T04:50:02.073Z,0
2016-03-23T04:51:02.060Z,4
2016-03-23T04:52:02.077Z,4
2016-03-23T04:53:02.081Z,4
2016-03-23T04:54:02.099Z,4
2016-03-23T04:55:02.118Z,8
2016-03-23T04:56:02.136Z,4
2016-03-23T04:57:02.154Z,8
2016-03-23T04:58:02.219Z,8
2016-03-23T04:59:02.190Z,8
2016-03-23T05:00:02.210Z,12
2016-03-23T05:01:02.212Z,12
2016-03-23T05:02:02.246Z,12
2016-03-23T05:03:02.232Z,12
2016-03-23T05:04:02.282Z,16
2016-03-23T05:05:02.284Z,16
2016-03-23T05:06:02.304Z,20
2016-03-23T05:07:02.353Z,20
2016-03-23T05:08:02.340Z,20
2016-03-23T05:09:02.373Z,20
2016-03-23T05:10:02.361Z,20
2016-03-23T05:11:02.395Z,20
2016-03-23T05:12:02.397Z,24
2016-03-23T05:13:02.431Z,28
2016-03-23T05:14:02.449Z,32
2016-03-23T05:15:02.453Z,40
2016-03-23T05:16:02.468Z,48
2016-03-23T05:17:02.476Z,48
2016-03-23T05:18:02.484Z,52
2016-03-23T05:19:02.476Z,48
2016-03-23T05:20:02.500Z,44
2016-03-23T05:21:02.510Z,40
2016-03-23T05:22:02.509Z,48
2016-03-23T05:23:02.523Z,52
2016-03-23T05:24:02.538Z,44
2016-03-23T05:25:02.554Z,44
2016-03-23T05:26:02.569Z,52
2016-03-23T05:27:02.601Z,60
2016-03-23T05:28:02.618Z,56
2016-03-23T05:29:02.619Z,48
2016-03-23T05:30:02.636Z,56
2016-03-23T05:31:02.637Z,72
2016-03-23T05:32:02.655Z,84
2016-03-23T05:33:02.674Z,80
2016-03-23T05:34:02.692Z,72
2016-03-23T05:35:02.709Z,72
2016-03-23T05:36:02.728Z,88
2016-03-23T05:37:02.745Z,92
2016-03-23T05:38:02.748Z,92
2016-03-23T05:39:02.766Z,96
2016-03-23T05:40:02.785Z,112
2016-03-23T05:41:02.803Z,120
2016-03-23T05:42:02.821Z,124
2016-03-23T05:43:02.840Z,128
2016-03-23T05:44:02.873Z,124
2016-03-23T05:45:02.891Z,136
2016-03-23T05:46:02.879Z,152
2016-03-23T05:47:02.897Z,152
2016-03-23T05:48:02.916Z,164
2016-03-23T05:49:02.934Z,176
2016-03-23T05:50:02.952Z,180
2016-03-23T05:51:02.970Z,180
2016-03-23T05:52:02.989Z,200
2016-03-23T05:53:03.007Z,184
2016-03-23T05:54:03.026Z,220
2016-03-23T05:55:03.059Z,308
2016-03-23T05:56:03.047Z,324
2016-03-23T05:57:03.081Z,336
2016-03-23T05:58:03.099Z,348
2016-03-23T05:59:03.118Z,340
2016-03-23T06:00:03.120Z,336
2016-03-23T06:01:03.139Z,336
2016-03-23T06:02:03.156Z,340
2016-03-23T06:03:03.175Z,340
2016-03-23T06:04:03.209Z,340
2016-03-23T06:05:03.195Z,368
2016-03-23T06:06:03.214Z,384
2016-03-23T06:07:03.257Z,404
2016-03-23T06:08:03.160Z,412
2016-03-23T06:09:03.257Z,400
2016-03-23T06:10:03.291Z,396
2016-03-23T06:11:03.310Z,408
2016-03-23T06:12:03.343Z,404
2016-03-23T06:13:03.346Z,408
2016-03-23T06:14:03.365Z,428
2016-03-23T06:15:03.383Z,456
2016-03-23T06:16:03.386Z,484
2016-03-23T06:17:03.403Z,512
2016-03-23T06:18:03.422Z,548
2016-03-23T06:19:03.440Z,572
2016-03-23T06:20:03.459Z,548
2016-03-23T06:21:03.478Z,544
2016-03-23T06:22:03.495Z,552
2016-03-23T06:23:03.514Z,572
2016-03-23T06:24:03.532Z,564
2016-03-23T06:25:03.550Z,544
2016-03-23T06:26:03.569Z,532
2016-03-23T06:27:03.650Z,560
2016-03-23T06:28:03.605Z,588
2016-03-23T06:29:03.624Z,600
2016-03-23T06:30:03.626Z,616
2016-03-23T06:31:03.644Z,624
2016-03-23T06:32:03.679Z,616
2016-03-23T06:33:03.682Z,632
2016-03-23T06:34:03.685Z,660
2016-03-23T06:35:03.718Z,664
2016-03-23T06:36:03.721Z,648
2016-03-23T06:37:03.754Z,656
2016-03-23T06:38:03.773Z,672
2016-03-23T06:39:03.776Z,684
2016-03-23T06:40:03.809Z,692
2016-03-23T06:41:03.843Z,696
2016-03-23T06:42:03.830Z,696
2016-03-23T06:43:03.848Z,700
2016-03-23T06:44:03.867Z,720
2016-03-23T06:45:03.885Z,728
2016-03-23T06:46:03.904Z,712
2016-03-23T06:47:03.922Z,696
2016-03-23T06:48:03.925Z,688
2016-03-23T06:49:03.942Z,680
2016-03-23T06:50:03.961Z,684
2016-03-23T06:51:03.980Z,696
2016-03-23T06:52:03.997Z,712
2016-03-23T06:53:04.016Z,760
2016-03-23T06:54:04.050Z,784
2016-03-23T06:55:04.053Z,792
2016-03-23T06:56:04.087Z,804
2016-03-23T06:57:04.137Z,796
2016-03-23T06:58:03.952Z,776
2016-03-23T06:59:04.127Z,756
2016-03-23T07:00:04.145Z,744
2016-03-23T07:01:04.163Z,760
2016-03-23T07:02:04.166Z,752
2016-03-23T07:03:04.184Z,728
2016-03-23T07:04:04.202Z,728
2016-03-23T07:05:04.064Z,752
2016-03-23T07:06:04.238Z,796
2016-03-23T07:07:04.257Z,816
2016-03-23T07:08:04.275Z,796
2016-03-23T07:09:04.279Z,764
2016-03-23T07:10:04.296Z,744
2016-03-23T07:11:04.330Z,760
2016-03-23T07:12:04.349Z,788
2016-03-23T07:13:04.367Z,792
2016-03-23T07:14:04.401Z,792
2016-03-23T07:15:04.403Z,820
2016-03-23T07:16:04.437Z,824
2016-03-23T07:17:04.425Z,816
2016-03-23T07:18:04.442Z,808
2016-03-23T07:19:04.461Z,780
2016-03-23T07:20:04.479Z,756
2016-03-23T07:21:04.497Z,836
2016-03-23T07:22:04.516Z,984
2016-03-23T07:23:04.534Z,964
2016-03-23T07:24:04.553Z,816
2016-03-23T07:25:04.572Z,708
2016-03-23T07:26:04.589Z,656
2016-03-23T07:27:04.608Z,616
2016-03-23T07:28:04.625Z,624
2016-03-23T07:29:04.644Z,604
2016-03-23T07:30:04.663Z,672
2016-03-23T07:31:04.666Z,852
2016-03-23T07:32:04.683Z,1024
2016-03-23T07:33:04.718Z,1032
2016-03-23T07:34:04.721Z,1008
2016-03-23T07:35:04.738Z,972
2016-03-23T07:36:04.757Z,1008
2016-03-23T07:37:04.775Z,1012
2016-03-23T07:38:04.809Z,984
2016-03-23T07:39:04.812Z,1028
2016-03-23T07:40:04.829Z,1056
2016-03-23T07:41:04.848Z,1072
2016-03-23T07:42:04.882Z,1088
2016-03-23T07:43:04.900Z,1076
2016-03-23T07:44:04.919Z,1080
2016-03-23T07:45:04.921Z,1096
2016-03-23T07:46:04.940Z,1096
2016-03-23T07:47:04.959Z,1120
2016-03-23T07:48:04.976Z,1140
2016-03-23T07:49:04.995Z,1180
2016-03-23T07:50:04.998Z,1252
2016-03-23T07:51:05.031Z,1292
2016-03-23T07:52:05.034Z,1312
2016-03-23T07:53:05.067Z,1304
2016-03-23T07:54:05.070Z,1252
2016-03-23T07:55:05.089Z,1212
2016-03-23T07:56:05.107Z,1200
2016-03-23T07:57:05.126Z,1236
2016-03-23T07:58:05.144Z,1268
2016-03-23T07:59:05.163Z,1292
2016-03-23T08:00:05.211Z,1312
2016-03-23T08:01:05.199Z,1304
2016-03-23T08:02:05.233Z,1384
2016-03-23T08:03:05.252Z,1460
2016-03-23T08:04:05.270Z,1496
2016-03-23T08:05:05.304Z,1512
2016-03-23T08:06:05.291Z,1540
2016-03-23T08:07:05.324Z,1480
2016-03-23T08:08:05.327Z,1204
2016-03-23T08:09:05.346Z,1008
2016-03-23T08:10:05.363Z,1084
2016-03-23T08:11:05.398Z,1324
2016-03-23T08:12:05.400Z,1536
2016-03-23T08:13:05.418Z,1536
2016-03-23T08:14:05.437Z,1488
2016-03-23T08:15:05.549Z,1484
2016-03-23T08:16:05.536Z,1452
2016-03-23T08:17:05.492Z,1388
2016-03-23T08:18:05.526Z,1368
2016-03-23T08:19:05.528Z,1396
2016-03-23T08:20:05.548Z,1448
2016-03-23T08:21:05.565Z,1624
2016-03-23T08:22:05.600Z,1800
2016-03-23T08:23:05.602Z,1896
2016-03-23T08:24:05.651Z,1912
2016-03-23T08:25:05.639Z,1900
2016-03-23T08:26:05.656Z,1812
2016-03-23T08:27:05.675Z,1736
2016-03-23T08:28:05.694Z,1656
2016-03-23T08:29:05.696Z,1632
2016-03-23T08:30:05.793Z,1744
2016-03-23T08:31:05.749Z,1712
2016-03-23T08:32:05.752Z,1764
2016-03-23T08:33:05.769Z,1716
2016-03-23T08:34:05.803Z,1636
2016-03-23T08:35:05.822Z,1480
2016-03-23T08:36:05.840Z,1416
2016-03-23T08:37:05.858Z,1472
2016-03-23T08:38:05.923Z,1444
2016-03-23T08:39:05.896Z,1180
2016-03-23T08:40:05.913Z,1240
2016-03-23T08:41:05.932Z,1512
2016-03-23T08:42:05.935Z,1744
2016-03-23T08:43:05.952Z,1876
2016-03-23T08:44:05.970Z,1888
2016-03-23T08:45:06.146Z,1912
2016-03-23T08:46:06.023Z,1908
2016-03-23T08:47:06.042Z,1760
2016-03-23T08:48:06.059Z,1608
2016-03-23T08:49:06.078Z,1424
2016-03-23T08:50:06.096Z,1284
2016-03-23T08:51:06.114Z,1468
2016-03-23T08:52:06.149Z,1608
2016-03-23T08:53:06.151Z,1584
2016-03-23T08:54:06.169Z,1396
2016-03-23T08:55:06.188Z,1428
2016-03-23T08:56:06.222Z,1540
2016-03-23T08:57:06.209Z,1488
2016-03-23T08:58:06.242Z,1784
2016-03-23T08:59:06.261Z,1888
2016-03-23T09:00:06.233Z,2008
2016-03-23T09:01:06.282Z,2036
2016-03-23T09:02:06.317Z,1980
2016-03-23T09:03:06.335Z,1788
2016-03-23T09:04:05.619Z,1488
2016-03-23T09:05:06.371Z,1228
2016-03-23T09:06:06.421Z,1084
2016-03-23T09:07:06.408Z,808
2016-03-23T09:08:06.441Z,672
2016-03-23T09:09:06.460Z,648
2016-03-23T09:10:06.478Z,564
2016-03-23T09:11:06.497Z,492
2016-03-23T09:12:06.515Z,404
2016-03-23T09:13:06.533Z,404
2016-03-23T09:14:06.535Z,476
2016-03-23T09:15:06.585Z,532
2016-03-23T09:16:06.573Z,524
2016-03-23T09:17:06.591Z,552
2016-03-23T09:18:06.609Z,600
2016-03-23T09:19:06.643Z,712
2016-03-23T09:20:05.958Z,884
2016-03-23T09:21:06.679Z,1036
2016-03-23T09:22:06.714Z,1080
2016-03-23T09:23:06.731Z,1140
2016-03-23T09:24:06.735Z,1244
2016-03-23T09:25:06.769Z,1396
2016-03-23T09:26:06.771Z,1572
2016-03-23T09:27:06.789Z,1712
2016-03-23T09:28:06.058Z,1812
2016-03-23T09:29:06.811Z,1844
2016-03-23T09:30:06.157Z,1880
2016-03-23T09:31:06.863Z,1956
2016-03-23T09:32:06.897Z,2052
2016-03-23T09:33:06.899Z,2144
2016-03-23T09:34:06.919Z,2212
2016-03-23T09:35:06.936Z,2100
2016-03-23T09:36:06.969Z,1824
2016-03-23T09:37:06.972Z,1960
2016-03-23T09:38:07.022Z,2060
2016-03-23T09:39:07.010Z,2128
2016-03-23T09:40:07.043Z,2232
2016-03-23T09:41:07.046Z,2324
2016-03-23T09:42:07.049Z,2316
2016-03-23T09:43:07.098Z,2268
2016-03-23T09:44:07.133Z,2064
2016-03-23T09:45:07.166Z,2064
2016-03-23T09:46:07.154Z,2276
2016-03-23T09:47:07.157Z,2336
2016-03-23T09:48:07.190Z,2328
2016-03-23T09:49:07.209Z,2292
2016-03-23T09:50:07.226Z,2244
2016-03-23T09:51:07.259Z,2200
2016-03-23T09:52:07.278Z,2188
2016-03-23T09:53:07.297Z,2152
2016-03-23T09:54:07.347Z,2124
2016-03-23T09:55:07.334Z,2132
2016-03-23T09:56:07.353Z,2204
2016-03-23T09:57:07.370Z,2320
2016-03-23T09:58:07.372Z,2432
2016-03-23T09:59:07.392Z,2484
2016-03-23T10:00:07.409Z,2524
2016-03-23T10:01:07.443Z,2520
2016-03-23T10:02:07.461Z,2384
2016-03-23T10:03:07.464Z,2260
2016-03-23T10:04:07.483Z,2376
2016-03-23T10:05:07.517Z,2420
2016-03-23T10:06:07.550Z,2416
2016-03-23T10:07:07.741Z,2276
2016-03-23T10:08:07.571Z,2084
2016-03-23T10:09:07.591Z,2132
2016-03-23T10:10:07.608Z,2248
2016-03-23T10:11:07.627Z,2384
2016-03-23T10:12:07.660Z,2144
2016-03-23T10:13:07.663Z,1932
2016-03-23T10:14:07.682Z,1684
2016-03-23T10:15:07.778Z,1716
2016-03-23T10:16:07.735Z,1756
2016-03-23T10:17:07.752Z,1756
2016-03-23T10:18:07.770Z,1912
2016-03-23T10:19:07.790Z,1948
2016-03-23T10:20:07.854Z,2372
2016-03-23T10:21:07.935Z,2288
2016-03-23T10:22:07.859Z,2176
2016-03-23T10:23:07.878Z,2060
2016-03-23T10:24:07.880Z,2112
2016-03-23T10:25:07.915Z,2432
2016-03-23T10:26:07.933Z,2184
2016-03-23T10:27:07.935Z,2228
2016-03-23T10:28:07.953Z,2292
2016-03-23T10:29:07.972Z,2416
2016-03-23T10:30:08.069Z,2376
2016-03-23T10:31:08.039Z,2292
2016-03-23T10:32:08.042Z,2332
2016-03-23T10:33:08.061Z,2040
2016-03-23T10:34:08.079Z,1900
2016-03-23T10:35:08.114Z,2024
2016-03-23T10:36:08.116Z,2032
2016-03-23T10:37:08.149Z,2444
2016-03-23T10:38:08.168Z,2520
2016-03-23T10:39:08.186Z,2720
2016-03-23T10:40:08.221Z,2672
2016-03-23T10:41:08.238Z,2492
2016-03-23T10:42:08.241Z,2288
2016-03-23T10:43:08.260Z,2180
2016-03-23T10:44:08.277Z,2408
2016-03-23T10:45:08.328Z,2676
2016-03-23T10:46:08.315Z,2764
2016-03-23T10:47:08.349Z,2828
2016-03-23T10:48:08.210Z,2876
2016-03-23T10:49:08.401Z,2896
2016-03-23T10:50:08.418Z,2876
2016-03-23T10:51:08.468Z,2772
2016-03-23T10:52:08.471Z,2664
2016-03-23T10:53:08.473Z,2444
2016-03-23T10:54:08.492Z,2376
2016-03-23T10:55:08.511Z,2248
2016-03-23T10:56:08.514Z,2056
2016-03-23T10:57:08.531Z,2156
2016-03-23T10:58:08.550Z,1980
2016-03-23T10:59:08.600Z,1856
2016-03-23T11:00:08.617Z,1820
2016-03-23T11:01:08.625Z,1652
2016-03-23T11:02:08.644Z,1244
2016-03-23T11:03:08.662Z,1544
2016-03-23T11:04:08.696Z,1628
2016-03-23T11:05:08.714Z,1248
2016-03-23T11:06:08.732Z,972
2016-03-23T11:07:08.751Z,1148
2016-03-23T11:08:08.769Z,1076
2016-03-23T11:09:08.803Z,1272
2016-03-23T11:10:08.805Z,1492
2016-03-23T11:11:08.824Z,1196
2016-03-23T11:12:08.843Z,1108
2016-03-23T11:13:08.860Z,1392
2016-03-23T11:14:08.879Z,1612
2016-03-23T11:15:08.928Z,1788
2016-03-23T11:16:08.932Z,2036
2016-03-23T11:17:08.949Z,1984
2016-03-23T11:18:08.983Z,1852
2016-03-23T11:19:08.987Z,1708
2016-03-23T11:20:09.004Z,1484
2016-03-23T11:21:09.023Z,1348
2016-03-23T11:22:09.042Z,1460
2016-03-23T11:23:09.075Z,1588
2016-03-23T11:24:09.093Z,1452
2016-03-23T11:25:09.095Z,1288
2016-03-23T11:26:09.146Z,1148
2016-03-23T11:27:09.148Z,1380
2016-03-23T11:28:09.167Z,1324
2016-03-23T11:29:09.186Z,1404
2016-03-23T11:30:09.234Z,1856
2016-03-23T11:31:09.237Z,2316
2016-03-23T11:32:09.256Z,2396
2016-03-23T11:33:09.275Z,2392
2016-03-23T11:34:09.292Z,2340
2016-03-23T11:35:09.310Z,2188
2016-03-23T11:36:09.330Z,2168
2016-03-23T11:37:09.363Z,2504
2016-03-23T11:38:09.381Z,2988
2016-03-23T11:39:09.399Z,2828
2016-03-23T11:40:09.449Z,2492
2016-03-23T11:41:09.435Z,2344
2016-03-23T11:42:09.471Z,2840
2016-03-23T11:43:09.488Z,2128
2016-03-23T11:44:09.537Z,1616
2016-03-23T11:45:09.524Z,1828
2016-03-23T11:46:09.543Z,1920
2016-03-23T11:47:09.859Z,1496
2016-03-23T11:48:09.876Z,1516
2016-03-23T11:49:09.660Z,1536
2016-03-23T11:50:09.929Z,1256
2016-03-23T11:51:09.634Z,1636
2016-03-23T11:52:09.669Z,1356
2016-03-23T11:53:09.687Z,1260
2016-03-23T11:54:09.706Z,876
2016-03-23T11:55:09.708Z,716
2016-03-23T11:56:09.742Z,1064
2016-03-23T11:57:09.761Z,1220
2016-03-23T11:58:09.778Z,1516
2016-03-23T11:59:09.797Z,1460
2016-03-23T12:00:09.815Z,1180
2016-03-23T12:01:09.833Z,908
2016-03-23T12:02:09.853Z,908
2016-03-23T12:03:09.870Z,668
2016-03-23T12:04:09.888Z,556
2016-03-23T12:05:09.907Z,624
2016-03-23T12:06:09.941Z,548
2016-03-23T12:07:09.975Z,456
2016-03-23T12:08:09.977Z,596
2016-03-23T12:09:09.996Z,748
2016-03-23T12:10:10.029Z,688
2016-03-23T12:11:10.048Z,620
2016-03-23T12:12:10.066Z,660
2016-03-23T12:13:10.069Z,604
2016-03-23T12:14:10.118Z,652
2016-03-23T12:15:10.137Z,528
2016-03-23T12:16:10.155Z,492
2016-03-23T12:17:10.002Z,592
2016-03-23T12:18:10.192Z,568
2016-03-23T12:19:10.210Z,400
2016-03-23T12:20:10.228Z,360
2016-03-23T12:21:10.263Z,472
2016-03-23T12:22:10.296Z,404
2016-03-23T12:23:10.299Z,504
2016-03-23T12:24:10.317Z,784
2016-03-23T12:25:10.398Z,748
2016-03-23T12:26:10.354Z,764
2016-03-23T12:27:10.387Z,968
2016-03-23T12:28:10.390Z,1036
2016-03-23T12:29:10.409Z,1172
2016-03-23T12:30:10.427Z,968
2016-03-23T12:31:10.445Z,848
2016-03-23T12:32:10.464Z,1032
2016-03-23T12:33:10.482Z,696
2016-03-23T12:34:10.516Z,1024
2016-03-23T12:35:10.534Z,1152
2016-03-23T12:36:10.553Z,1128
2016-03-23T12:37:10.555Z,1100
2016-03-23T12:38:10.605Z,1160
2016-03-23T12:39:10.624Z,1168
2016-03-23T12:40:10.641Z,1184
2016-03-23T12:41:10.660Z,1288
2016-03-23T12:42:10.693Z,1408
2016-03-23T12:43:10.696Z,1436
2016-03-23T12:44:10.699Z,1340
2016-03-23T12:45:10.717Z,1312
2016-03-23T12:46:10.751Z,1520
2016-03-23T12:47:10.770Z,1872
2016-03-23T12:48:10.787Z,1600
2016-03-23T12:49:10.806Z,1536
2016-03-23T12:50:10.824Z,1884
2016-03-23T12:51:10.858Z,1608
2016-03-23T12:52:10.876Z,944
2016-03-23T12:53:10.896Z,764
2016-03-23T12:54:10.945Z,804
2016-03-23T12:55:10.948Z,660
2016-03-23T12:56:10.950Z,532
2016-03-23T12:57:10.953Z,484
2016-03-23T12:58:10.970Z,584
2016-03-23T12:59:10.989Z,536
2016-03-23T13:00:11.023Z,452
2016-03-23T13:01:11.042Z,392
2016-03-23T13:02:11.075Z,456
2016-03-23T13:03:11.094Z,596
2016-03-23T13:04:11.112Z,800
2016-03-23T13:05:11.130Z,880
2016-03-23T13:06:11.149Z,1100
2016-03-23T13:07:11.152Z,1468
2016-03-23T13:08:11.029Z,1516
2016-03-23T13:09:11.205Z,1692
2016-03-23T13:10:11.222Z,1916
2016-03-23T13:11:11.224Z,1772
2016-03-23T13:12:11.258Z,1296
2016-03-23T13:13:11.277Z,1660
2016-03-23T13:14:11.296Z,1564
2016-03-23T13:15:11.313Z,1468
2016-03-23T13:16:11.332Z,1552
2016-03-23T13:17:11.351Z,1548
2016-03-23T13:18:11.384Z,1680
2016-03-23T13:19:11.388Z,1644
2016-03-23T13:20:11.405Z,1500
2016-03-23T13:21:11.423Z,1628
2016-03-23T13:22:11.458Z,1872
2016-03-23T13:23:11.460Z,1864
2016-03-23T13:24:11.509Z,2040
2016-03-23T13:25:11.512Z,2248
2016-03-23T13:26:11.531Z,2440
2016-03-23T13:27:11.548Z,2408
2016-03-23T13:28:11.568Z,1952
2016-03-23T13:29:11.617Z,1488
2016-03-23T13:30:11.620Z,1460
2016-03-23T13:31:11.622Z,1552
2016-03-23T13:32:11.656Z,1496
2016-03-23T13:33:11.674Z,1556
2016-03-23T13:34:11.692Z,1732
2016-03-23T13:35:11.711Z,1776
2016-03-23T13:36:10.995Z,1856
2016-03-23T13:37:11.748Z,1636
2016-03-23T13:38:11.766Z,1828
2016-03-23T13:39:11.785Z,1916
2016-03-23T13:40:11.802Z,2144
2016-03-23T13:41:11.822Z,2032
2016-03-23T13:42:11.839Z,2004
2016-03-23T13:43:11.857Z,1932
2016-03-23T13:44:11.877Z,2240
2016-03-23T13:45:11.910Z,2540
2016-03-23T13:46:11.929Z,2824
2016-03-23T13:47:11.947Z,2528
2016-03-23T13:48:11.949Z,2540
2016-03-23T13:49:11.982Z,2208
2016-03-23T13:50:12.002Z,1404
2016-03-23T13:51:12.020Z,1400
2016-03-23T13:52:12.023Z,1480
2016-03-23T13:53:12.072Z,1136
2016-03-23T13:54:12.075Z,780
2016-03-23T13:55:12.109Z,764
2016-03-23T13:56:12.112Z,676
2016-03-23T13:57:12.145Z,924
2016-03-23T13:58:12.164Z,764
2016-03-23T13:59:12.182Z,784